createdAt,value
2023-01-11T00:01:20.558Z,20.85
2023-01-11T00:04:00.100Z,21.63
2023-01-11T00:06:27.621Z,21.20
2023-01-11T00:08:56.482Z,20.25
2023-01-11T00:11:23.464Z,23.38
2023-01-11T00:13:51.016Z,20.55
2023-01-11T00:16:19.444Z,21.02
2023-01-11T00:18:46.888Z,20.95
2023-01-11T00:21:15.131Z,23.58
2023-01-11T00:23:43.415Z,20.20
2023-01-11T00:26:13.976Z,18.55
2023-01-11T00:28:41.391Z,19.05
2023-01-11T00:31:09.882Z,23.77
2023-01-11T00:33:37.329Z,20.27
2023-01-11T00:36:05.879Z,23.58
2023-01-11T00:38:46.981Z,20.65
2023-01-11T00:41:34.367Z,23.55
2023-01-11T00:44:20.033Z,25.48
2023-01-11T00:47:05.747Z,23.35
2023-01-11T00:49:33.245Z,23.95
2023-01-11T00:52:00.936Z,23.35
2023-01-11T00:54:28.107Z,20.75
2023-01-11T00:56:55.464Z,22.02
2023-01-11T00:59:23.084Z,22.35
2023-01-11T01:01:52.547Z,20.00
2023-01-11T01:04:20.105Z,22.52
2023-01-11T01:06:47.504Z,19.27
2023-01-11T01:09:15.570Z,21.83
2023-01-11T01:11:42.889Z,19.63
2023-01-11T01:14:31.119Z,19.63
2023-01-11T01:17:04.667Z,19.65
2023-01-11T01:22:06.487Z,22.67
2023-01-11T01:24:35.020Z,18.30
2023-01-11T01:27:02.379Z,15.48
2023-01-11T01:29:29.892Z,17.35
2023-01-11T01:31:57.397Z,24.48
2023-01-11T01:34:24.808Z,20.50
2023-01-11T01:36:52.283Z,19.95
2023-01-11T01:39:19.733Z,28.52
2023-01-11T01:41:47.161Z,27.38
2023-01-11T01:44:51.563Z,26.25
2023-01-11T01:47:22.401Z,26.60
2023-01-11T01:49:49.607Z,23.10
2023-01-11T01:52:17.650Z,28.42
2023-01-11T01:54:48.533Z,23.23
2023-01-11T01:57:24.148Z,20.33
2023-01-11T01:59:53.883Z,23.25
2023-01-11T02:02:24.403Z,21.02
2023-01-11T02:04:53.457Z,21.70
2023-01-11T02:07:29.829Z,21.08
2023-01-11T02:10:10.485Z,21.70
2023-01-11T02:12:57.781Z,18.92
2023-01-11T02:15:25.213Z,19.60
2023-01-11T02:17:52.549Z,19.23
2023-01-11T02:20:31.997Z,18.80
2023-01-11T02:23:20.681Z,20.38
2023-01-11T02:26:13.089Z,20.10
2023-01-11T02:28:46.528Z,16.45
2023-01-11T02:34:23.136Z,19.35
2023-01-11T02:37:18.088Z,129.35
2023-01-11T02:40:18.330Z,129.00
2023-01-11T02:43:07.160Z,18.83
2023-01-11T02:45:35.352Z,19.45
2023-01-11T02:48:12.557Z,20.73
2023-01-11T02:51:11.307Z,21.27
2023-01-11T02:53:44.817Z,20.33
2023-01-11T02:58:45.714Z,21.20
2023-01-11T03:01:15.623Z,27.13
2023-01-11T03:03:44.982Z,21.85
2023-01-11T03:06:17.456Z,16.73
2023-01-11T03:09:26.660Z,20.30
2023-01-11T03:12:29.263Z,16.13
2023-01-11T03:15:11.253Z,14.82
2023-01-11T03:17:57.766Z,18.30
2023-01-11T03:20:34.835Z,19.00
2023-01-11T03:23:19.419Z,19.95
2023-01-11T03:25:46.849Z,17.40
2023-01-11T03:28:38.382Z,18.75
2023-01-11T03:31:13.284Z,22.48
2023-01-11T03:33:53.851Z,17.30
2023-01-11T03:36:29.360Z,17.23
2023-01-11T03:39:17.618Z,18.55
2023-01-11T03:41:46.333Z,16.58
2023-01-11T03:44:17.284Z,21.77
2023-01-11T03:46:48.987Z,18.75
2023-01-11T03:49:45.765Z,18.38
2023-01-11T03:52:16.947Z,15.73
2023-01-11T03:54:45.758Z,24.30
2023-01-11T03:57:21.009Z,24.20
2023-01-11T03:59:50.143Z,19.02
2023-01-11T04:02:28.387Z,22.40
2023-01-11T04:04:55.609Z,26.08
2023-01-11T04:07:23.120Z,25.48
2023-01-11T04:09:50.576Z,24.05
2023-01-11T04:12:17.922Z,22.42
2023-01-11T04:14:45.437Z,18.90
2023-01-11T04:17:12.797Z,20.50
2023-01-11T04:19:41.427Z,19.67
2023-01-11T04:22:09.803Z,19.60
2023-01-11T04:24:37.294Z,21.65
2023-01-11T04:27:04.345Z,24.52
2023-01-11T04:29:32.763Z,26.98
2023-01-11T04:32:00.161Z,25.35
2023-01-11T04:34:27.613Z,28.27
2023-01-11T04:36:55.135Z,21.85
2023-01-11T04:39:23.642Z,22.27
2023-01-11T04:42:09.212Z,20.90
2023-01-11T04:44:36.381Z,18.75
2023-01-11T04:47:03.868Z,19.20
2023-01-11T04:49:31.376Z,21.98
2023-01-11T04:51:58.767Z,20.95
2023-01-11T04:54:26.319Z,24.85
2023-01-11T04:56:53.696Z,22.92
2023-01-11T04:59:21.180Z,23.92
2023-01-11T05:01:48.499Z,23.95
2023-01-11T05:04:15.766Z,19.73
2023-01-11T05:06:44.055Z,20.08
2023-01-11T05:09:17.225Z,20.85
2023-01-11T05:11:45.080Z,19.23
2023-01-11T05:14:14.734Z,23.35
2023-01-11T05:16:42.905Z,23.67
2023-01-11T05:19:11.562Z,26.02
2023-01-11T05:21:42.095Z,25.60
2023-01-11T05:24:13.518Z,25.33
2023-01-11T05:26:43.376Z,25.13
2023-01-11T05:29:13.566Z,32.97
2023-01-11T05:31:41.390Z,31.27
2023-01-11T05:34:12.622Z,39.85
2023-01-11T05:36:40.400Z,35.03
2023-01-11T05:39:07.985Z,39.13
2023-01-11T05:41:35.763Z,32.97
2023-01-11T05:44:23.200Z,38.72
2023-01-11T05:46:50.502Z,36.17
2023-01-11T05:49:17.949Z,38.88
2023-01-11T05:51:46.461Z,34.53
2023-01-11T05:54:19.971Z,35.65
2023-01-11T05:56:48.500Z,38.25
2023-01-11T05:59:16.019Z,36.28
2023-01-11T06:01:43.472Z,34.60
2023-01-11T06:04:11.099Z,37.25
2023-01-11T06:06:44.565Z,35.33
2023-01-11T06:09:11.977Z,33.30
2023-01-11T06:11:39.412Z,36.17
2023-01-11T06:14:08.887Z,34.22
2023-01-11T06:16:36.387Z,39.75
2023-01-11T06:19:04.038Z,31.73
2023-01-11T06:21:31.310Z,33.38
2023-01-11T06:23:58.685Z,33.13
2023-01-11T06:26:26.149Z,36.00
2023-01-11T06:28:53.829Z,33.67
2023-01-11T06:31:21.123Z,33.15
2023-01-11T06:33:48.607Z,31.92
2023-01-11T06:36:16.318Z,29.60
2023-01-11T06:38:45.066Z,38.22
2023-01-11T06:41:13.160Z,108.85
2023-01-11T06:43:42.480Z,70.18
2023-01-11T06:46:17.497Z,45.08
2023-01-11T06:48:45.583Z,50.88
2023-01-11T06:51:14.414Z,57.22
2023-01-11T06:53:42.823Z,101.00
2023-01-11T06:56:23.789Z,82.28
2023-01-11T06:58:52.528Z,81.00
2023-01-11T07:01:20.336Z,62.05
2023-01-11T07:03:47.839Z,52.03
2023-01-11T07:06:15.268Z,42.83
2023-01-11T07:08:43.735Z,40.80
2023-01-11T07:11:12.367Z,39.55
2023-01-11T07:13:39.609Z,42.65
2023-01-11T07:16:07.308Z,33.95
2023-01-11T07:18:37.624Z,37.00
2023-01-11T07:21:07.080Z,37.90
2023-01-11T07:23:34.680Z,36.45
2023-01-11T07:26:06.133Z,36.15
2023-01-11T07:28:34.596Z,30.67
2023-01-11T07:31:02.114Z,32.60
2023-01-11T07:33:29.573Z,28.70
2023-01-11T07:35:58.457Z,31.63
2023-01-11T07:38:25.963Z,24.80
2023-01-11T07:40:53.400Z,23.05
2023-01-11T07:43:23.649Z,24.38
2023-01-11T07:45:57.949Z,25.33
2023-01-11T07:48:28.149Z,22.20
2023-01-11T07:50:57.548Z,21.70
2023-01-11T07:53:26.625Z,18.85
2023-01-11T07:55:56.665Z,16.20
2023-01-11T07:58:24.481Z,15.82
2023-01-11T08:00:52.051Z,15.23
2023-01-11T08:03:19.246Z,13.52
2023-01-11T08:05:54.073Z,13.88
2023-01-11T08:08:21.932Z,12.40
2023-01-11T08:11:09.494Z,15.80
2023-01-11T08:13:55.410Z,17.70
2023-01-11T08:16:22.942Z,13.35
2023-01-11T08:18:53.518Z,11.57
2023-01-11T08:21:21.648Z,12.82
2023-01-11T08:23:48.849Z,13.13
2023-01-11T08:26:18.270Z,12.95
2023-01-11T08:28:47.161Z,11.82
2023-01-11T08:31:14.902Z,12.18
2023-01-11T08:33:42.556Z,14.18
2023-01-11T08:36:12.685Z,16.50
2023-01-11T08:38:40.546Z,12.02
2023-01-11T08:41:11.293Z,10.00
2023-01-11T08:43:42.771Z,10.55
2023-01-11T08:46:11.100Z,9.90
2023-01-11T08:48:38.715Z,7.82
2023-01-11T08:51:06.323Z,8.98
2023-01-11T08:53:35.827Z,6.80
2023-01-11T08:56:04.209Z,7.85
2023-01-11T08:58:31.646Z,9.13
2023-01-11T09:01:00.373Z,6.47
2023-01-11T09:03:31.182Z,6.60
2023-01-11T09:05:58.656Z,6.80
2023-01-11T09:08:27.325Z,6.07
2023-01-11T09:10:56.957Z,5.78
2023-01-11T09:13:24.528Z,7.07
2023-01-11T09:15:56.189Z,6.63
2023-01-11T09:18:30.774Z,6.47
2023-01-11T09:20:57.826Z,8.10
2023-01-11T09:23:32.200Z,8.60
2023-01-11T09:25:59.766Z,7.07
2023-01-11T09:28:27.178Z,6.35
2023-01-11T09:30:54.647Z,6.78
2023-01-11T09:33:22.080Z,7.38
2023-01-11T09:35:52.185Z,6.13
2023-01-11T09:38:20.028Z,5.40
2023-01-11T09:41:03.908Z,6.65
2023-01-11T09:46:08.144Z,5.07
2023-01-11T09:48:55.271Z,5.68
2023-01-11T09:51:34.147Z,7.93
2023-01-11T09:54:06.138Z,5.75
2023-01-11T09:56:46.712Z,3.67
2023-01-11T09:59:51.012Z,4.65
2023-01-11T10:02:51.772Z,3.65
2023-01-11T10:05:30.073Z,6.20
2023-01-11T10:18:28.166Z,6.72
2023-01-11T10:18:29.799Z,3.15
2023-01-11T10:21:13.590Z,6.32
2023-01-11T10:23:55.200Z,6.32
2023-01-11T10:26:32.512Z,5.68
2023-01-11T10:29:57.861Z,6.88
2023-01-11T10:32:50.438Z,5.65
2023-01-11T10:35:59.158Z,6.93
2023-01-11T10:38:59.535Z,5.80
2023-01-11T10:41:38.055Z,5.45
2023-01-11T10:44:32.039Z,5.88
2023-01-11T10:47:02.129Z,5.25
2023-01-11T10:49:57.317Z,4.43
2023-01-11T10:52:33.704Z,5.95
2023-01-11T10:55:13.175Z,3.53
2023-01-11T10:57:59.835Z,6.57
2023-01-11T11:00:49.016Z,6.18
2023-01-11T11:03:24.649Z,4.05
2023-01-11T11:06:30.690Z,5.82
2023-01-11T11:09:22.931Z,6.47
2023-01-11T11:12:10.961Z,7.28
2023-01-11T11:14:53.191Z,5.05
2023-01-11T11:17:24.444Z,5.70
2023-01-11T11:19:53.745Z,5.88
2023-01-11T11:22:21.345Z,6.25
2023-01-11T11:25:02.828Z,11.32
2023-01-11T11:27:51.698Z,4.20
2023-01-11T11:30:57.090Z,5.10
2023-01-11T11:33:39.124Z,4.97
2023-01-11T11:36:12.564Z,9.00
2023-01-11T11:39:05.707Z,4.55
2023-01-11T11:41:50.135Z,5.32
2023-01-11T11:44:28.784Z,5.13
2023-01-11T11:47:05.634Z,6.40
2023-01-11T11:49:37.279Z,7.63
2023-01-11T11:52:05.839Z,5.28
2023-01-11T11:54:41.703Z,8.55
2023-01-11T11:57:34.024Z,6.13
2023-01-11T12:00:26.378Z,8.15
2023-01-11T12:03:08.020Z,5.45
2023-01-11T12:05:35.272Z,6.22
2023-01-11T12:08:03.471Z,6.03
2023-01-11T12:10:36.741Z,6.80
2023-01-11T12:13:29.695Z,7.68
2023-01-11T12:16:06.347Z,6.40
2023-01-11T12:18:43.672Z,6.82
2023-01-11T12:21:26.236Z,7.10
2023-01-11T12:24:18.638Z,7.60
2023-01-11T12:27:20.939Z,6.40
2023-01-11T12:30:25.409Z,6.60
2023-01-11T12:35:45.723Z,5.40
2023-01-11T12:38:16.161Z,8.10
2023-01-11T12:41:10.066Z,6.85
2023-01-11T12:43:46.149Z,8.88
2023-01-11T12:46:24.164Z,9.55
2023-01-11T12:49:04.384Z,6.85
2023-01-11T12:52:09.113Z,5.28
2023-01-11T12:54:55.623Z,6.13
2023-01-11T12:58:02.125Z,6.78
2023-01-11T13:00:38.583Z,7.95
2023-01-11T13:03:36.955Z,7.30
2023-01-11T13:06:15.454Z,7.47
2023-01-11T13:09:09.837Z,6.10
2023-01-11T13:11:46.115Z,5.70
2023-01-11T13:14:43.786Z,6.80
2023-01-11T13:17:28.472Z,12.48
2023-01-11T13:20:28.728Z,6.15
2023-01-11T13:23:19.831Z,12.23
2023-01-11T13:25:51.149Z,6.82
2023-01-11T13:28:35.598Z,7.07
2023-01-11T13:31:07.778Z,5.90
2023-01-11T13:33:38.368Z,6.45
2023-01-11T13:36:23.707Z,8.98
2023-01-11T13:39:28.844Z,7.72
2023-01-11T13:42:00.856Z,8.65
2023-01-11T13:44:31.541Z,7.57
2023-01-11T13:47:37.112Z,5.75
2023-01-11T13:50:22.297Z,6.65
2023-01-11T13:53:10.122Z,6.65
2023-01-11T13:55:40.504Z,6.60
2023-01-11T13:58:36.859Z,7.93
2023-01-11T14:01:15.480Z,8.20
2023-01-11T14:03:54.379Z,7.85
2023-01-11T14:06:43.005Z,9.77
2023-01-11T14:09:22.277Z,5.25
2023-01-11T14:12:00.573Z,6.22
2023-01-11T14:14:49.550Z,8.85
2023-01-11T14:18:14.147Z,8.25
2023-01-11T14:20:49.541Z,9.00
2023-01-11T14:23:32.838Z,7.28
2023-01-11T14:26:17.782Z,7.93
2023-01-11T14:28:54.578Z,7.03
2023-01-11T14:31:40.233Z,6.05
2023-01-11T14:34:33.037Z,7.05
2023-01-11T14:37:34.268Z,8.10
2023-01-11T14:40:43.076Z,10.70
2023-01-11T14:43:42.638Z,7.47
2023-01-11T14:46:45.956Z,8.88
2023-01-11T14:49:35.807Z,8.90
2023-01-11T14:52:38.484Z,11.07
2023-01-11T14:55:19.301Z,7.90
2023-01-11T14:58:17.717Z,10.70
2023-01-11T15:00:45.147Z,7.35
2023-01-11T15:03:19.965Z,8.32
2023-01-11T15:06:23.775Z,9.88
2023-01-11T15:08:55.594Z,7.18
2023-01-11T15:11:34.782Z,8.43
2023-01-11T15:14:22.036Z,11.02
2023-01-11T15:17:15.769Z,7.78
2023-01-11T15:19:44.651Z,7.95
2023-01-11T15:22:33.445Z,10.70
2023-01-11T15:25:17.985Z,9.02
2023-01-11T15:27:45.674Z,11.18
2023-01-11T15:30:31.229Z,9.65
2023-01-11T15:33:21.039Z,11.30
2023-01-11T15:35:59.510Z,10.40
2023-01-11T15:39:03.681Z,15.82
2023-01-11T15:42:12.699Z,11.02
2023-01-11T15:45:15.265Z,11.93
2023-01-11T15:48:20.145Z,11.95
2023-01-11T15:51:05.910Z,15.35
2023-01-11T15:53:59.171Z,10.65
2023-01-11T15:57:06.907Z,11.63
2023-01-11T16:00:10.529Z,11.43
2023-01-11T16:02:37.479Z,15.80
2023-01-11T16:05:39.911Z,11.73
2023-01-11T16:08:32.453Z,12.57
2023-01-11T16:11:42.457Z,13.38
2023-01-11T16:14:19.228Z,11.88
2023-01-11T16:16:52.981Z,11.52
2023-01-11T16:19:26.727Z,16.73
2023-01-11T16:21:59.391Z,16.70
2023-01-11T16:24:29.816Z,12.33
2023-01-11T16:27:00.741Z,16.30
2023-01-11T16:29:35.256Z,15.65
2023-01-11T16:32:08.638Z,13.65
2023-01-11T16:34:42.698Z,16.05
2023-01-11T16:37:39.370Z,11.40
2023-01-11T16:40:21.962Z,15.73
2023-01-11T16:43:07.317Z,16.08
2023-01-11T16:45:46.303Z,13.52
2023-01-11T16:48:20.890Z,16.52
2023-01-11T16:51:07.631Z,15.43
2023-01-11T16:53:42.961Z,13.68
2023-01-11T16:56:24.024Z,14.80
2023-01-11T16:59:16.774Z,12.25
2023-01-11T17:01:56.599Z,12.82
2023-01-11T17:04:54.396Z,12.93
2023-01-11T17:07:24.772Z,13.00
2023-01-11T17:09:53.057Z,13.55
2023-01-11T17:12:24.629Z,14.77
2023-01-11T17:15:04.844Z,14.45
2023-01-11T17:17:37.432Z,14.57
2023-01-11T17:20:16.053Z,14.73
2023-01-11T17:22:44.774Z,20.55
2023-01-11T17:25:37.286Z,23.27
2023-01-11T17:28:20.999Z,15.57
2023-01-11T17:30:52.197Z,13.98
2023-01-11T17:33:32.011Z,17.95
2023-01-11T17:36:01.692Z,16.42
2023-01-11T17:38:30.419Z,18.30
2023-01-11T17:40:58.950Z,15.20
2023-01-11T17:43:48.206Z,16.55
2023-01-11T17:46:23.306Z,17.38
2023-01-11T17:48:57.390Z,15.73
2023-01-11T17:51:33.926Z,15.20
2023-01-11T17:54:01.431Z,22.73
2023-01-11T17:56:42.120Z,18.55
2023-01-11T17:59:11.970Z,17.30
2023-01-11T18:01:40.035Z,15.90
2023-01-11T18:04:19.252Z,19.35
2023-01-11T18:07:04.948Z,18.75
2023-01-11T18:09:34.251Z,16.25
2023-01-11T18:12:23.836Z,15.52
2023-01-11T18:14:53.031Z,22.75
2023-01-11T18:17:39.637Z,22.85
2023-01-11T18:20:29.815Z,22.35
2023-01-11T18:23:16.797Z,21.33
2023-01-11T18:25:46.791Z,18.80
2023-01-11T18:28:38.678Z,23.05
2023-01-11T18:31:08.024Z,18.67
2023-01-11T18:33:35.812Z,19.05
2023-01-11T18:36:04.870Z,15.80
2023-01-11T18:38:36.332Z,21.25
2023-01-11T18:41:27.539Z,17.75
2023-01-11T18:43:57.174Z,14.65
2023-01-11T18:46:25.045Z,15.93
2023-01-11T18:48:52.787Z,15.55
2023-01-11T18:51:39.736Z,18.23
2023-01-11T18:54:16.349Z,10.75
2023-01-11T18:56:44.303Z,15.10
2023-01-11T18:59:11.858Z,15.45
2023-01-11T19:01:54.510Z,13.93
2023-01-11T19:04:27.758Z,14.00
2023-01-11T19:06:55.360Z,14.02
2023-01-11T19:09:23.125Z,14.02
2023-01-11T19:11:53.088Z,14.40
2023-01-11T19:14:21.779Z,12.52
2023-01-11T19:16:49.485Z,12.68
2023-01-11T19:19:17.041Z,11.10
2023-01-11T19:21:45.415Z,15.32
2023-01-11T19:24:19.082Z,13.55
2023-01-11T19:29:19.500Z,16.48
2023-01-11T19:31:51.035Z,18.63
2023-01-11T19:34:19.503Z,19.60
2023-01-11T19:36:47.226Z,16.17
2023-01-11T19:39:14.933Z,13.05
2023-01-11T19:41:55.518Z,11.38
2023-01-11T19:44:25.512Z,23.85
2023-01-11T19:47:09.566Z,19.48
2023-01-11T19:49:38.351Z,23.65
2023-01-11T19:52:13.238Z,34.60
2023-01-11T19:54:46.956Z,35.00
2023-01-11T19:57:23.223Z,17.40
2023-01-11T19:59:51.608Z,18.90
2023-01-11T20:02:21.620Z,19.10
2023-01-11T20:04:49.205Z,14.82
2023-01-11T20:07:19.472Z,39.05
2023-01-11T20:09:46.974Z,33.53
2023-01-11T20:12:18.759Z,32.55
2023-01-11T20:14:47.889Z,26.30
2023-01-11T20:17:21.352Z,22.27
2023-01-11T20:19:54.902Z,27.40
2023-01-11T20:24:52.648Z,25.33
2023-01-11T20:27:20.621Z,27.70
2023-01-11T20:29:48.283Z,31.52
2023-01-11T20:32:39.140Z,20.40
2023-01-11T20:35:05.867Z,18.85
2023-01-11T20:37:33.510Z,13.93
2023-01-11T20:40:02.518Z,14.05
2023-01-11T20:42:31.919Z,26.15
2023-01-11T20:44:59.832Z,25.67
2023-01-11T20:47:28.438Z,26.00
2023-01-11T20:49:55.978Z,25.00
2023-01-11T20:52:23.446Z,26.55
2023-01-11T20:54:51.378Z,18.52
2023-01-11T20:57:18.660Z,11.82
2023-01-11T20:59:47.103Z,16.13
2023-01-11T21:02:14.370Z,17.92
2023-01-11T21:04:41.647Z,13.55
2023-01-11T21:07:08.988Z,15.77
2023-01-11T21:09:36.476Z,14.75
2023-01-11T21:12:04.113Z,14.52
2023-01-11T21:14:31.285Z,17.85
2023-01-11T21:16:58.779Z,35.95
2023-01-11T21:19:26.917Z,38.47
2023-01-11T21:21:54.242Z,56.97
2023-01-11T21:24:21.919Z,45.05
2023-01-11T21:26:49.235Z,34.53
2023-01-11T21:29:22.810Z,28.83
2023-01-11T21:34:19.151Z,22.02
2023-01-11T21:36:46.671Z,22.20
2023-01-11T21:39:15.674Z,25.88
2023-01-11T21:41:58.608Z,18.70
2023-01-11T21:44:33.847Z,17.75
2023-01-11T21:47:02.819Z,23.35
2023-01-11T21:49:31.183Z,22.25
2023-01-11T21:52:00.054Z,21.17
2023-01-11T21:54:27.625Z,20.13
2023-01-11T21:56:55.097Z,18.13
2023-01-11T21:59:22.793Z,17.20
2023-01-11T22:01:49.844Z,15.95
2023-01-11T22:04:19.710Z,18.35
2023-01-11T22:06:55.145Z,17.05
2023-01-11T22:09:27.489Z,22.25
2023-01-11T22:11:55.776Z,22.00
2023-01-11T22:14:30.877Z,19.90
2023-01-11T22:16:58.266Z,25.63
2023-01-11T22:19:25.637Z,18.95
2023-01-11T22:21:55.207Z,17.98
2023-01-11T22:24:22.901Z,24.02
2023-01-11T22:26:50.072Z,23.85
2023-01-11T22:29:17.612Z,24.23
2023-01-11T22:31:51.543Z,23.92
2023-01-11T22:34:19.810Z,25.88
2023-01-11T22:36:47.359Z,25.73
2023-01-11T22:39:17.406Z,29.45
2023-01-11T22:41:48.126Z,27.95
2023-01-11T22:44:16.279Z,28.80
2023-01-11T22:46:44.144Z,31.00
2023-01-11T22:49:12.050Z,33.95
2023-01-11T22:51:41.543Z,36.50
2023-01-11T22:54:09.240Z,33.15
2023-01-11T22:56:36.461Z,32.53
2023-01-11T22:59:04.028Z,33.35
2023-01-11T23:01:34.974Z,31.23
2023-01-11T23:04:04.370Z,33.85
2023-01-11T23:06:34.465Z,31.13
2023-01-11T23:09:02.630Z,31.08
2023-01-11T23:11:53.868Z,28.13
2023-01-11T23:14:21.825Z,27.95
2023-01-11T23:16:50.792Z,26.88
2023-01-11T23:19:20.654Z,26.98
2023-01-11T23:21:47.986Z,26.85
2023-01-11T23:24:17.611Z,25.88
2023-01-11T23:26:45.583Z,23.42
2023-01-11T23:29:13.471Z,27.13
2023-01-11T23:31:46.383Z,22.55
2023-01-11T23:34:14.937Z,19.88
2023-01-11T23:36:43.797Z,21.98
2023-01-11T23:39:16.529Z,20.92
2023-01-11T23:42:02.623Z,19.33
2023-01-11T23:44:31.998Z,17.40
2023-01-11T23:47:18.987Z,19.48
2023-01-11T23:49:46.242Z,17.95
2023-01-11T23:52:13.792Z,13.80
2023-01-11T23:54:43.541Z,14.20
2023-01-11T23:57:13.754Z,15.10
2023-01-11T23:59:42.085Z,15.70
